Time;durP1;ratioP1;P1;durP2;ratioP2;P2;SDS_P1;SDS_P2;PMS_P1;PMS_P2;Temp;Humidity;BMP_temperature;BMP_pressure;BME280_temperature;BME280_humidity;BME280_pressure;Samples;Min_cycle;Max_cycle;Signal;HPM_P1;HPM_P2
2023/05/05 00:01:08;;;;;;;7.55;3.97;;;10.60;99.90;;;;;;5115532;28;20048;-81
2023/05/05 00:03:35;;;;;;;9.13;3.58;;;10.60;99.90;;;;;;5115659;28;20047;-82
2023/05/05 00:06:02;;;;;;;6.60;3.38;;;10.60;99.90;;;;;;5149287;28;20157;-82
2023/05/05 00:08:29;;;;;;;7.00;3.55;;;10.60;99.90;;;;;;5115177;28;20515;-82
2023/05/05 00:10:56;;;;;;;7.72;3.50;;;10.60;99.90;;;;;;5132259;28;20114;-82
2023/05/05 00:13:23;;;;;;;7.25;3.47;;;10.60;99.90;;;;;;5119248;27;20089;-82
2023/05/05 00:15:52;;;;;;;6.40;3.40;;;10.60;99.90;;;;;;5170086;27;20030;-81
2023/05/05 00:18:19;;;;;;;5.70;3.55;;;10.60;99.90;;;;;;5135831;27;20487;-82
2023/05/05 00:20:46;;;;;;;8.77;3.42;;;10.50;99.90;;;;;;5135919;27;20078;-82
2023/05/05 00:23:18;;;;;;;6.78;3.40;;;10.60;99.90;;;;;;5135764;27;20127;-81
2023/05/05 00:25:45;;;;;;;9.07;3.50;;;10.50;99.90;;;;;;5169665;27;20039;-81
2023/05/05 00:28:15;;;;;;;7.35;3.30;;;10.50;99.90;;;;;;5135697;27;20046;-82
2023/05/05 00:30:43;;;;;;;10.27;3.40;;;10.50;99.90;;;;;;5135738;27;20069;-81
2023/05/05 00:33:10;;;;;;;8.02;3.22;;;10.50;99.90;;;;;;5132970;28;20039;-82
2023/05/05 00:35:36;;;;;;;8.43;3.22;;;10.40;99.90;;;;;;5115236;28;20039;-82
2023/05/05 00:38:03;;;;;;;8.38;3.80;;;10.40;99.90;;;;;;5114346;28;20039;-81
2023/05/05 00:40:30;;;;;;;6.72;3.40;;;10.30;99.90;;;;;;5132089;28;20414;-81
2023/05/05 00:42:58;;;;;;;8.65;3.53;;;10.40;99.90;;;;;;5110115;27;20043;-82
2023/05/05 00:45:25;;;;;;;8.32;3.60;;;10.30;99.90;;;;;;5118839;27;20544;-82
2023/05/05 00:47:54;;;;;;;7.75;3.45;;;10.30;99.90;;;;;;5135271;27;20118;-82
2023/05/05 00:50:24;;;;;;;10.27;3.80;;;10.30;99.90;;;;;;5151899;27;20042;-82
2023/05/05 00:53:10;;;;;;;10.13;3.55;;;10.30;99.90;;;;;;5168716;27;20039;-81
2023/05/05 00:55:37;;;;;;;10.40;3.20;;;10.30;99.90;;;;;;5152059;27;20070;-82
2023/05/05 00:58:04;;;;;;;9.23;3.50;;;10.30;99.90;;;;;;5134650;27;20462;-81
2023/05/05 01:00:30;;;;;;;9.13;3.58;;;10.30;99.90;;;;;;5118112;27;20050;-82
2023/05/05 01:02:58;;;;;;;8.38;3.50;;;10.40;99.90;;;;;;5129790;28;20118;-82
2023/05/05 01:05:26;;;;;;;8.13;3.67;;;10.40;99.90;;;;;;5114425;28;20135;-82
2023/05/05 01:07:59;;;;;;;12.50;3.63;;;10.30;99.90;;;;;;5114250;28;20031;-80
2023/05/05 01:10:36;;;;;;;9.73;3.78;;;10.40;99.90;;;;;;5148065;28;20035;-80
2023/05/05 01:13:25;;;;;;;8.38;3.60;;;10.40;99.90;;;;;;5146832;27;20039;-80
2023/05/05 01:16:00;;;;;;;8.75;3.80;;;10.40;99.90;;;;;;5130907;28;20031;-80
2023/05/05 01:18:51;;;;;;;15.70;3.70;;;10.40;99.90;;;;;;5131276;28;20047;-80
2023/05/05 01:21:32;;;;;;;7.25;4.32;;;10.30;99.90;;;;;;5131078;28;20043;-80
2023/05/05 01:24:31;;;;;;;8.93;3.78;;;10.30;99.90;;;;;;5149840;27;20031;-80
2023/05/05 01:27:24;;;;;;;11.05;4.00;;;10.30;99.90;;;;;;5151220;27;20042;-80
2023/05/05 01:30:15;;;;;;;7.53;3.58;;;10.40;99.90;;;;;;5168425;27;20055;-79
2023/05/05 01:33:05;;;;;;;10.25;3.88;;;10.40;99.90;;;;;;5144421;28;20057;-80
2023/05/05 01:35:38;;;;;;;8.88;3.67;;;10.30;99.90;;;;;;5131186;28;20042;-80
2023/05/05 01:38:07;;;;;;;8.85;3.50;;;10.30;99.90;;;;;;5130536;28;20067;-80
2023/05/05 01:40:40;;;;;;;8.93;3.90;;;10.20;99.90;;;;;;5130830;28;20078;-80
2023/05/05 01:43:11;;;;;;;7.93;4.15;;;10.20;99.90;;;;;;5133230;27;20487;-80
2023/05/05 01:45:41;;;;;;;10.65;3.80;;;10.20;99.90;;;;;;5168278;27;20582;-80
2023/05/05 01:48:11;;;;;;;9.25;3.20;;;10.10;99.90;;;;;;5150591;27;20074;-80
2023/05/05 01:50:40;;;;;;;10.45;4.22;;;10.10;99.90;;;;;;5134216;27;20039;-80
2023/05/05 01:53:08;;;;;;;9.73;3.85;;;10.10;99.90;;;;;;5131388;27;20039;-80
2023/05/05 01:55:37;;;;;;;10.95;3.90;;;10.00;99.90;;;;;;5113871;28;20032;-80
2023/05/05 01:58:06;;;;;;;10.68;3.47;;;10.00;99.90;;;;;;5130404;28;20044;-80
2023/05/05 02:00:33;;;;;;;11.10;4.32;;;10.00;99.90;;;;;;5113979;28;20058;-80
2023/05/05 02:03:03;;;;;;;12.07;3.88;;;10.00;99.90;;;;;;5096802;28;20957;-80
2023/05/05 02:05:31;;;;;;;10.23;4.20;;;10.00;99.90;;;;;;5166304;27;20043;-80
2023/05/05 02:08:00;;;;;;;9.40;3.78;;;9.90;99.90;;;;;;5150489;27;20559;-80
2023/05/05 02:10:27;;;;;;;8.80;3.92;;;10.00;99.90;;;;;;5133463;27;20194;-80
2023/05/05 02:12:55;;;;;;;7.70;3.95;;;9.90;99.90;;;;;;5133656;27;20172;-80
2023/05/05 02:15:23;;;;;;;11.55;4.18;;;9.90;99.90;;;;;;5117048;27;20060;-80
2023/05/05 02:17:51;;;;;;;12.02;4.13;;;9.80;99.90;;;;;;5133853;27;20434;-80
2023/05/05 02:20:21;;;;;;;8.98;4.18;;;9.80;99.90;;;;;;5134009;27;20046;-80
2023/05/05 02:22:48;;;;;;;8.23;3.88;;;9.80;99.90;;;;;;5167391;27;20068;-80
2023/05/05 02:25:16;;;;;;;7.28;4.05;;;9.80;99.90;;;;;;5130058;28;20043;-80
2023/05/05 02:27:45;;;;;;;8.05;3.90;;;9.80;99.90;;;;;;5096870;28;20135;-79
2023/05/05 02:30:16;;;;;;;7.28;3.72;;;9.80;99.90;;;;;;5146305;28;20487;-80
2023/05/05 02:32:55;;;;;;;10.15;4.13;;;9.80;99.90;;;;;;5147179;28;20032;-81
2023/05/05 02:35:28;;;;;;;9.48;4.13;;;9.80;99.90;;;;;;5129827;28;20039;-81
2023/05/05 02:38:01;;;;;;;7.18;3.78;;;9.80;99.90;;;;;;5143441;28;20046;-81
2023/05/05 02:40:31;;;;;;;9.57;4.15;;;9.80;99.90;;;;;;5150254;28;20045;-81
2023/05/05 02:43:03;;;;;;;8.63;4.00;;;9.80;99.90;;;;;;5150172;28;20061;-81
2023/05/05 02:45:30;;;;;;;7.65;3.90;;;9.80;99.90;;;;;;5149940;28;20039;-81
2023/05/05 02:48:00;;;;;;;8.57;3.60;;;9.80;99.90;;;;;;5116390;28;20084;-81
2023/05/05 02:50:27;;;;;;;9.20;3.60;;;9.80;99.90;;;;;;5149965;28;20067;-81
2023/05/05 02:52:54;;;;;;;9.77;3.83;;;9.90;99.90;;;;;;5116796;28;20077;-81
2023/05/05 02:55:20;;;;;;;8.02;3.40;;;9.90;99.90;;;;;;5148032;27;20118;-81
2023/05/05 02:58:01;;;;;;;8.05;3.60;;;9.90;99.90;;;;;;5167678;28;20037;-81
2023/05/05 03:00:47;;;;;;;7.43;3.35;;;9.90;99.90;;;;;;5151253;27;20068;-81
2023/05/05 03:03:20;;;;;;;10.43;3.58;;;9.90;99.90;;;;;;5153949;27;20043;-81
2023/05/05 03:06:03;;;;;;;7.60;3.35;;;9.90;99.90;;;;;;5151552;27;20084;-81
2023/05/05 03:08:41;;;;;;;8.10;3.72;;;10.00;99.90;;;;;;5150207;28;20408;-81
2023/05/05 03:11:17;;;;;;;7.72;4.05;;;10.00;99.90;;;;;;5133426;28;20046;-81
2023/05/05 03:13:45;;;;;;;;;;;10.00;99.90;;;;;;5133999;28;20031;-80
2023/05/05 03:16:14;;;;;;;8.75;3.92;;;10.00;99.90;;;;;;5133479;28;19915;-81
2023/05/05 03:18:42;;;;;;;7.50;3.17;;;10.00;99.90;;;;;;5133568;28;20039;-81
2023/05/05 03:21:09;;;;;;;8.60;3.85;;;10.00;99.90;;;;;;5116120;28;20122;-81
2023/05/05 03:23:36;;;;;;;8.73;3.38;;;10.00;99.90;;;;;;5099602;28;20134;-81
2023/05/05 03:26:04;;;;;;;8.18;3.70;;;10.00;99.90;;;;;;5132949;28;20088;-81
2023/05/05 03:28:31;;;;;;;9.30;3.55;;;10.00;99.90;;;;;;5119246;27;20122;-81
2023/05/05 03:30:58;;;;;;;7.13;3.45;;;10.00;99.90;;;;;;5136389;27;20085;-81
2023/05/05 03:33:24;;;;;;;7.70;3.45;;;10.00;99.90;;;;;;5119398;27;20083;-81
2023/05/05 03:35:51;;;;;;;9.13;3.28;;;10.10;99.90;;;;;;5153715;27;20046;-81
2023/05/05 03:38:18;;;;;;;12.52;4.15;;;10.10;99.90;;;;;;5106872;27;20043;-81
2023/05/05 03:40:44;;;;;;;7.88;3.20;;;10.10;99.90;;;;;;5116402;28;20040;-81
2023/05/05 03:43:11;;;;;;;7.57;3.28;;;10.10;99.90;;;;;;5150381;28;20130;-81
2023/05/05 03:45:38;;;;;;;8.07;3.42;;;10.10;99.90;;;;;;5116112;28;20042;-81
2023/05/05 03:48:05;;;;;;;6.43;3.05;;;10.10;99.90;;;;;;5116032;28;20074;-81
2023/05/05 03:50:32;;;;;;;7.95;3.47;;;10.10;99.90;;;;;;5098925;28;20071;-81
2023/05/05 03:52:59;;;;;;;8.23;3.40;;;10.00;99.90;;;;;;5115626;28;20070;-81
2023/05/05 03:55:25;;;;;;;9.65;3.30;;;10.00;99.90;;;;;;5132118;28;20092;-81
2023/05/05 03:57:52;;;;;;;7.43;2.97;;;10.00;99.90;;;;;;5115261;28;20031;-81
2023/05/05 04:00:19;;;;;;;8.20;3.75;;;10.00;99.90;;;;;;5099580;28;20040;-81
2023/05/05 04:02:45;;;;;;;11.95;3.47;;;9.90;99.90;;;;;;5132484;28;20040;-81
2023/05/05 04:05:12;;;;;;;8.25;3.33;;;9.90;99.90;;;;;;5098922;28;20511;-81
2023/05/05 04:07:39;;;;;;;6.47;3.35;;;9.80;99.90;;;;;;5115152;28;20050;-81
2023/05/05 04:10:06;;;;;;;7.65;3.25;;;9.80;99.90;;;;;;5133092;27;20035;-81
2023/05/05 04:12:33;;;;;;;7.32;3.58;;;9.90;99.90;;;;;;5134993;27;20039;-81
2023/05/05 04:15:00;;;;;;;5.97;3.13;;;9.80;99.90;;;;;;5136170;27;20104;-81
2023/05/05 04:17:26;;;;;;;9.25;3.92;;;9.80;99.90;;;;;;5118924;27;20047;-81
2023/05/05 04:19:53;;;;;;;5.32;3.10;;;9.80;99.90;;;;;;5115636;28;20036;-81
2023/05/05 04:22:20;;;;;;;6.28;3.10;;;9.90;99.90;;;;;;5098824;28;20032;-81
2023/05/05 04:24:46;;;;;;;6.22;3.17;;;9.90;99.90;;;;;;5132074;28;20496;-81
2023/05/05 04:27:13;;;;;;;9.02;3.70;;;9.90;99.90;;;;;;5132336;28;20044;-81
2023/05/05 04:29:40;;;;;;;6.50;3.47;;;10.00;99.90;;;;;;5097736;28;20044;-81
2023/05/05 04:32:06;;;;;;;10.25;3.45;;;10.00;99.90;;;;;;5115798;28;20044;-81
2023/05/05 04:34:33;;;;;;;8.43;3.42;;;10.10;99.90;;;;;;5115046;28;20123;-82
2023/05/05 04:37:00;;;;;;;7.10;3.42;;;10.20;99.90;;;;;;5132001;28;20035;-81
2023/05/05 04:39:26;;;;;;;7.47;3.20;;;10.20;99.90;;;;;;5117459;28;20039;-81
2023/05/05 04:41:53;;;;;;;5.78;3.33;;;10.30;99.90;;;;;;5132013;28;20032;-81
2023/05/05 04:44:20;;;;;;;8.57;3.40;;;10.40;99.90;;;;;;5114935;28;20039;-81
2023/05/05 04:46:47;;;;;;;9.52;3.35;;;10.40;99.90;;;;;;5098043;28;20552;-81
2023/05/05 04:49:14;;;;;;;8.40;3.33;;;10.50;99.90;;;;;;5098069;28;20096;-81
2023/05/05 04:51:41;;;;;;;6.82;3.38;;;10.50;99.90;;;;;;5114752;28;20127;-81
2023/05/05 04:54:08;;;;;;;7.13;3.08;;;10.50;99.90;;;;;;5098322;28;20036;-81
2023/05/05 04:56:35;;;;;;;5.93;3.40;;;10.50;99.90;;;;;;5131637;28;20028;-81
2023/05/05 04:59:02;;;;;;;8.82;3.70;;;10.40;99.90;;;;;;5131789;28;20054;-81
2023/05/05 05:01:30;;;;;;;12.07;4.45;;;10.40;99.90;;;;;;5097755;28;20039;-82
2023/05/05 05:03:57;;;;;;;8.90;4.03;;;10.30;99.90;;;;;;5107881;28;20051;-82
2023/05/05 05:06:23;;;;;;;8.80;3.88;;;10.20;99.90;;;;;;5148123;28;20127;-82
2023/05/05 05:08:50;;;;;;;8.90;3.50;;;10.20;99.90;;;;;;5113769;28;20048;-82
2023/05/05 05:11:17;;;;;;;8.98;3.58;;;10.10;99.90;;;;;;5114198;28;20036;-82
2023/05/05 05:13:45;;;;;;;7.63;4.28;;;10.00;99.90;;;;;;5130837;28;20039;-82
2023/05/05 05:16:11;;;;;;;11.20;4.32;;;10.00;99.90;;;;;;5114494;28;20085;-82
2023/05/05 05:18:38;;;;;;;10.32;4.65;;;9.90;99.90;;;;;;5114015;28;20491;-82
2023/05/05 05:21:05;;;;;;;11.00;4.38;;;9.90;99.90;;;;;;5113916;28;20044;-82
2023/05/05 05:23:31;;;;;;;10.52;4.22;;;9.80;99.90;;;;;;5113920;28;20035;-82
2023/05/05 05:25:58;;;;;;;8.95;4.85;;;9.80;99.90;;;;;;5113997;28;20039;-82
2023/05/05 05:28:25;;;;;;;9.00;4.00;;;9.80;99.90;;;;;;5147773;28;20047;-82
2023/05/05 05:30:52;;;;;;;6.63;4.00;;;9.70;99.90;;;;;;5113519;28;20055;-82
2023/05/05 05:33:19;;;;;;;6.78;3.92;;;9.70;99.90;;;;;;5130795;28;20495;-82
2023/05/05 05:35:45;;;;;;;7.43;4.45;;;9.70;99.90;;;;;;5113866;28;20035;-81
2023/05/05 05:38:12;;;;;;;9.27;4.22;;;9.60;99.90;;;;;;5114016;28;20082;-82
2023/05/05 05:40:38;;;;;;;8.70;4.40;;;9.60;99.90;;;;;;5130193;28;20050;-82
2023/05/05 05:43:05;;;;;;;11.57;4.63;;;9.60;99.90;;;;;;5130793;28;20074;-82
2023/05/05 05:45:32;;;;;;;7.55;4.35;;;9.60;99.90;;;;;;5113796;28;20555;-82
2023/05/05 05:47:59;;;;;;;8.55;4.38;;;9.60;99.90;;;;;;5113728;28;20036;-82
2023/05/05 05:50:27;;;;;;;6.95;4.47;;;9.60;99.90;;;;;;5130615;28;20109;-82
2023/05/05 05:52:54;;;;;;;13.75;4.93;;;9.60;99.90;;;;;;5111617;28;20134;-82
2023/05/05 05:55:21;;;;;;;15.85;4.57;;;9.60;99.90;;;;;;5130567;28;20118;-82
2023/05/05 05:57:47;;;;;;;13.15;4.97;;;9.60;99.90;;;;;;5130031;28;20047;-82
2023/05/05 06:00:14;;;;;;;12.90;5.15;;;9.60;99.90;;;;;;5130772;28;20483;-82
2023/05/05 06:02:41;;;;;;;7.32;4.32;;;9.70;99.90;;;;;;5113220;28;20097;-82
2023/05/05 06:05:09;;;;;;;10.48;4.50;;;9.70;99.90;;;;;;5130536;28;20035;-82
2023/05/05 06:07:35;;;;;;;9.15;3.95;;;9.70;99.90;;;;;;5120801;28;20113;-82
2023/05/05 06:10:02;;;;;;;15.18;4.30;;;9.70;99.90;;;;;;5129702;28;20123;-82
2023/05/05 06:12:29;;;;;;;9.88;4.40;;;9.80;99.90;;;;;;5113546;28;20036;-82
2023/05/05 06:14:56;;;;;;;8.75;4.30;;;9.80;99.90;;;;;;5114289;28;20067;-82
2023/05/05 06:17:22;;;;;;;8.07;4.25;;;9.80;99.90;;;;;;5113651;28;20046;-82
2023/05/05 06:19:49;;;;;;;11.65;4.60;;;9.80;99.90;;;;;;5130155;28;20081;-82
2023/05/05 06:22:16;;;;;;;9.95;4.63;;;9.80;99.90;;;;;;5096785;28;20104;-82
2023/05/05 06:24:43;;;;;;;11.65;4.70;;;9.90;99.90;;;;;;5113326;28;20047;-82
2023/05/05 06:27:10;;;;;;;8.88;4.80;;;9.90;99.90;;;;;;5113688;28;20067;-82
2023/05/05 06:29:37;;;;;;;9.50;5.10;;;10.00;99.90;;;;;;5096448;28;20117;-82
2023/05/05 06:32:06;;;;;;;14.30;4.88;;;10.10;99.90;;;;;;5096097;28;20123;-82
2023/05/05 06:34:33;;;;;;;8.82;4.55;;;10.10;99.90;;;;;;5124609;27;20502;-82
2023/05/05 06:37:00;;;;;;;12.95;4.43;;;10.20;99.90;;;;;;5116062;28;20043;-82
2023/05/05 06:39:26;;;;;;;11.02;4.85;;;10.30;99.90;;;;;;5116267;28;20384;-82
2023/05/05 06:41:53;;;;;;;8.10;4.90;;;10.30;99.90;;;;;;5116544;28;20087;-82
2023/05/05 06:44:20;;;;;;;8.80;4.65;;;10.40;99.90;;;;;;5112908;28;20031;-82
2023/05/05 06:46:46;;;;;;;7.28;4.53;;;10.40;99.90;;;;;;5101096;28;20545;-81
2023/05/05 06:49:13;;;;;;;12.85;4.75;;;10.50;99.90;;;;;;5127499;28;20040;-81
2023/05/05 06:51:40;;;;;;;9.77;4.53;;;10.60;99.90;;;;;;5112984;28;20043;-82
2023/05/05 06:54:06;;;;;;;11.43;5.03;;;10.70;99.90;;;;;;5113854;28;20046;-82
2023/05/05 06:56:33;;;;;;;12.38;4.70;;;10.70;99.90;;;;;;5133193;28;20042;-81
2023/05/05 06:59:00;;;;;;;9.38;4.88;;;10.70;99.90;;;;;;5124171;28;20040;-82
2023/05/05 07:01:27;;;;;;;8.30;4.47;;;10.70;99.90;;;;;;5126568;28;20039;-82
2023/05/05 07:03:53;;;;;;;7.95;4.40;;;10.80;99.90;;;;;;5121389;28;20036;-82
2023/05/05 07:06:20;;;;;;;11.48;5.20;;;10.70;99.90;;;;;;5105684;28;20039;-82
2023/05/05 07:08:47;;;;;;;7.63;4.60;;;10.80;99.90;;;;;;5112420;28;20039;-82
2023/05/05 07:11:13;;;;;;;9.05;4.70;;;10.70;99.90;;;;;;5114198;28;20096;-82
2023/05/05 07:13:40;;;;;;;9.52;4.80;;;10.70;99.90;;;;;;5148024;28;20031;-82
2023/05/05 07:16:07;;;;;;;11.40;4.90;;;10.70;99.90;;;;;;5104031;28;20530;-82
2023/05/05 07:18:33;;;;;;;8.73;4.20;;;10.70;99.90;;;;;;5112475;28;20044;-82
2023/05/05 07:21:00;;;;;;;9.60;4.95;;;10.80;99.90;;;;;;5128911;28;20047;-82
2023/05/05 07:23:27;;;;;;;7.60;4.38;;;10.80;99.90;;;;;;5112301;28;20050;-82
2023/05/05 07:25:54;;;;;;;8.88;4.57;;;10.80;99.90;;;;;;5095740;28;20039;-81
2023/05/05 07:28:21;;;;;;;11.38;4.90;;;10.90;99.90;;;;;;5112614;28;20043;-82
2023/05/05 07:30:47;;;;;;;10.25;5.07;;;11.00;99.90;;;;;;5112298;28;20051;-82
2023/05/05 07:33:14;;;;;;;9.40;5.30;;;11.10;99.90;;;;;;5131947;28;20521;-82
2023/05/05 07:35:41;;;;;;;9.65;5.13;;;11.20;99.90;;;;;;5116461;28;20039;-82
2023/05/05 07:38:08;;;;;;;10.10;5.15;;;11.30;99.90;;;;;;5127225;28;20146;-82
2023/05/05 07:40:34;;;;;;;9.10;5.50;;;11.40;99.90;;;;;;5101873;28;20053;-82
2023/05/05 07:43:01;;;;;;;9.70;5.90;;;11.50;99.90;;;;;;5112629;28;20050;-82
2023/05/05 07:45:28;;;;;;;8.68;5.63;;;11.60;99.90;;;;;;5112737;28;20039;-82
2023/05/05 07:47:54;;;;;;;8.80;4.90;;;11.70;99.90;;;;;;5107430;28;20100;-80
2023/05/05 07:50:22;;;;;;;9.70;5.03;;;11.70;99.90;;;;;;5115394;28;20150;-82
2023/05/05 07:52:48;;;;;;;8.75;4.93;;;11.70;99.90;;;;;;5130540;28;20040;-82
2023/05/05 07:55:15;;;;;;;11.25;5.38;;;11.70;99.90;;;;;;5098770;28;20042;-82
2023/05/05 07:57:42;;;;;;;9.07;4.70;;;11.90;99.90;;;;;;5116123;28;20130;-82
2023/05/05 08:00:09;;;;;;;12.77;5.13;;;12.00;99.90;;;;;;5132290;28;20123;-82
2023/05/05 08:02:36;;;;;;;9.05;5.35;;;12.10;99.90;;;;;;5135139;27;20043;-82
2023/05/05 08:05:03;;;;;;;9.30;5.22;;;12.20;99.90;;;;;;5118293;27;20039;-82
2023/05/05 08:07:30;;;;;;;8.60;5.50;;;12.40;99.90;;;;;;5135362;27;20394;-82
2023/05/05 08:09:57;;;;;;;10.45;5.40;;;12.50;99.90;;;;;;5152661;27;20187;-82
2023/05/05 08:12:23;;;;;;;13.25;5.82;;;12.70;99.90;;;;;;5131653;28;20084;-82
2023/05/05 08:14:50;;;;;;;13.38;5.60;;;12.90;99.90;;;;;;5098603;28;20433;-82
2023/05/05 08:17:17;;;;;;;14.63;5.90;;;12.90;99.90;;;;;;5098234;28;20130;-83
2023/05/05 08:19:43;;;;;;;8.90;5.60;;;13.10;99.90;;;;;;5114749;28;20039;-82
2023/05/05 08:22:10;;;;;;;9.13;5.55;;;13.20;99.90;;;;;;5114702;28;20159;-82
2023/05/05 08:24:37;;;;;;;11.70;5.63;;;13.30;99.90;;;;;;5132160;28;20044;-82
2023/05/05 08:27:04;;;;;;;10.10;5.72;;;13.40;99.90;;;;;;5114488;28;20042;-82
2023/05/05 08:29:30;;;;;;;10.23;5.55;;;13.50;99.90;;;;;;5114521;28;20050;-82
2023/05/05 08:31:57;;;;;;;11.32;6.10;;;13.60;99.90;;;;;;5131958;28;20629;-82
2023/05/05 08:34:24;;;;;;;13.40;6.18;;;13.70;99.90;;;;;;5114602;28;20369;-82
2023/05/05 08:36:50;;;;;;;13.07;6.50;;;13.80;99.90;;;;;;5114752;28;20064;-82
2023/05/05 08:39:17;;;;;;;16.27;6.65;;;13.90;99.90;;;;;;5119889;28;20050;-82
2023/05/05 08:41:44;;;;;;;10.43;6.32;;;14.10;99.90;;;;;;5130720;28;20040;-82
2023/05/05 08:44:11;;;;;;;15.68;6.63;;;14.20;99.90;;;;;;5114123;28;20455;-82
2023/05/05 08:46:38;;;;;;;10.25;6.28;;;14.30;99.90;;;;;;5098231;28;20074;-82
2023/05/05 08:49:08;;;;;;;12.57;5.82;;;14.40;99.90;;;;;;5116354;28;20039;-82
2023/05/05 08:51:40;;;;;;;12.88;6.35;;;14.60;99.90;;;;;;5131413;28;20058;-82
2023/05/05 08:54:13;;;;;;;11.25;6.32;;;14.70;99.90;;;;;;5131086;28;20039;-82
2023/05/05 08:56:40;;;;;;;11.55;6.50;;;14.80;99.90;;;;;;5148559;28;20036;-82
2023/05/05 08:59:10;;;;;;;10.35;5.97;;;15.00;99.90;;;;;;5147447;28;20118;-81
2023/05/05 09:01:36;;;;;;;12.07;6.50;;;15.10;99.90;;;;;;5131018;28;20097;-81
2023/05/05 09:04:04;;;;;;;10.75;6.43;;;15.20;99.90;;;;;;5114053;28;20070;-82
2023/05/05 09:06:32;;;;;;;9.40;6.40;;;15.30;99.90;;;;;;5148231;28;20445;-82
2023/05/05 09:09:00;;;;;;;10.77;6.70;;;15.40;99.90;;;;;;5114640;27;20038;-82
2023/05/05 09:11:27;;;;;;;9.85;6.25;;;15.40;99.90;;;;;;5160371;27;20048;-82
2023/05/05 09:13:54;;;;;;;9.05;6.43;;;15.40;99.90;;;;;;5097947;28;20044;-82
2023/05/05 09:16:21;;;;;;;11.73;6.47;;;15.50;99.90;;;;;;5149885;27;20035;-81
2023/05/05 09:18:48;;;;;;;11.98;6.85;;;15.60;99.90;;;;;;5134771;27;20045;-82
2023/05/05 09:21:22;;;;;;;13.32;7.35;;;15.80;99.90;;;;;;5133642;27;20151;-82
2023/05/05 09:24:07;;;;;;;9.57;6.55;;;15.90;99.90;;;;;;5129256;28;20042;-82
2023/05/05 09:26:40;;;;;;;10.52;6.55;;;16.00;99.90;;;;;;5156152;27;20051;-80
2023/05/05 09:29:07;;;;;;;13.98;7.78;;;16.10;99.90;;;;;;5138815;27;20122;-81
2023/05/05 09:31:35;;;;;;;15.55;7.30;;;16.30;99.90;;;;;;5101131;28;20530;-79
2023/05/05 09:34:15;;;;;;;12.88;7.65;;;16.40;99.90;;;;;;5130685;28;20036;-81
2023/05/05 09:36:46;;;;;;;11.63;6.95;;;16.60;99.90;;;;;;5141986;28;20488;-82
2023/05/05 09:39:18;;;;;;;11.38;7.35;;;16.70;99.90;;;;;;5135838;28;20407;-82
2023/05/05 09:41:45;;;;;;;11.35;7.40;;;16.70;99.90;;;;;;5097042;28;20036;-82
2023/05/05 09:44:14;;;;;;;11.80;7.32;;;16.90;99.90;;;;;;5113636;28;20043;-83
2023/05/05 09:46:51;;;;;;;13.90;7.35;;;17.00;99.90;;;;;;5123909;28;20035;-82
2023/05/05 09:49:24;;;;;;;13.55;7.40;;;17.10;99.90;;;;;;5129500;28;20130;-82
2023/05/05 09:51:51;;;;;;;13.77;7.57;;;17.30;99.90;;;;;;5113498;28;20035;-82
2023/05/05 09:54:29;;;;;;;9.13;7.00;;;17.30;99.90;;;;;;5113226;28;20399;-82
2023/05/05 09:56:56;;;;;;;12.65;7.18;;;17.50;99.90;;;;;;5121139;27;20472;-82
2023/05/05 09:59:23;;;;;;;11.25;7.85;;;17.50;99.90;;;;;;5136964;28;20056;-82
2023/05/05 10:01:50;;;;;;;13.18;7.47;;;17.70;99.90;;;;;;5113019;28;20510;-82
2023/05/05 10:04:25;;;;;;;14.82;7.90;;;17.70;99.90;;;;;;5112434;28;20051;-83
2023/05/05 10:06:53;;;;;;;13.05;7.22;;;17.70;99.90;;;;;;5129812;28;20040;-82
2023/05/05 10:09:20;;;;;;;10.88;7.63;;;17.80;99.90;;;;;;5129568;28;20105;-83
2023/05/05 10:11:46;;;;;;;14.10;7.90;;;17.90;99.90;;;;;;5095968;28;20576;-83
2023/05/05 10:14:14;;;;;;;11.05;7.85;;;18.00;99.90;;;;;;5129708;28;20071;-83
2023/05/05 10:16:49;;;;;;;12.07;7.85;;;18.10;99.90;;;;;;5122705;27;20118;-83
2023/05/05 10:19:21;;;;;;;14.10;7.97;;;18.30;99.90;;;;;;5129489;28;20430;-83
2023/05/05 10:21:51;;;;;;;14.52;9.25;;;18.30;99.90;;;;;;5129821;28;20075;-81
2023/05/05 10:24:45;;;;;;;13.10;8.77;;;18.30;99.90;;;;;;5114159;28;20040;-82
2023/05/05 10:27:18;;;;;;;11.52;8.77;;;18.40;99.90;;;;;;5144388;28;20043;-83
2023/05/05 10:30:05;;;;;;;14.98;8.98;;;18.50;99.90;;;;;;5146222;28;20058;-83
2023/05/05 10:32:43;;;;;;;13.73;8.70;;;18.70;99.90;;;;;;5129954;28;20450;-84
2023/05/05 10:35:21;;;;;;;15.02;8.52;;;18.80;99.90;;;;;;5129910;28;20039;-82
2023/05/05 10:37:49;;;;;;;10.80;8.32;;;19.00;99.90;;;;;;5128654;28;20063;-83
2023/05/05 10:40:20;;;;;;;17.90;9.30;;;19.20;99.90;;;;;;5128857;28;20574;-84
2023/05/05 10:42:48;;;;;;;13.40;9.45;;;19.20;99.90;;;;;;5129296;28;20040;-83
2023/05/05 10:45:15;;;;;;;12.38;9.23;;;19.30;99.90;;;;;;5112808;28;20441;-83
2023/05/05 10:47:43;;;;;;;14.75;9.32;;;19.30;99.90;;;;;;5096660;28;20101;-83
2023/05/05 10:50:35;;;;;;;13.60;9.70;;;19.30;99.90;;;;;;5148703;28;20408;-83
2023/05/05 10:53:22;;;;;;;14.27;9.77;;;19.50;99.90;;;;;;5150324;28;20039;-83
2023/05/05 10:56:12;;;;;;;12.90;9.38;;;19.70;99.90;;;;;;5149548;28;20035;-84
2023/05/05 10:58:40;;;;;;;13.88;9.43;;;19.70;99.90;;;;;;5145478;28;20035;-83
2023/05/05 11:01:08;;;;;;;13.70;9.38;;;19.70;99.90;;;;;;5139604;28;20057;-83
2023/05/05 11:03:35;;;;;;;14.45;9.73;;;19.80;99.90;;;;;;5149117;28;20884;-83
2023/05/05 11:06:06;;;;;;;15.30;10.50;;;20.00;99.90;;;;;;5166830;28;20493;-83
2023/05/05 11:08:36;;;;;;;13.43;9.18;;;20.10;99.90;;;;;;5149645;28;20039;-80
2023/05/05 11:11:03;;;;;;;14.90;10.13;;;20.00;99.90;;;;;;5129156;28;20032;-80
2023/05/05 11:13:30;;;;;;;14.38;9.70;;;19.80;99.90;;;;;;5131198;28;20479;-81
2023/05/05 11:15:59;;;;;;;14.23;9.68;;;19.70;99.90;;;;;;5142902;28;20045;-80
2023/05/05 11:18:38;;;;;;;15.43;10.02;;;19.70;99.90;;;;;;5137665;28;20537;-80
2023/05/05 11:21:06;;;;;;;17.95;10.23;;;19.70;99.90;;;;;;5160860;27;20505;-81
2023/05/05 11:23:33;;;;;;;16.17;9.57;;;19.70;99.90;;;;;;5163758;27;20039;-81
2023/05/05 11:26:00;;;;;;;15.40;10.52;;;19.80;99.90;;;;;;5144248;28;20487;-81
2023/05/05 11:28:29;;;;;;;16.25;10.82;;;19.70;99.90;;;;;;5115930;28;20054;-80
2023/05/05 11:30:59;;;;;;;13.25;10.15;;;19.90;99.90;;;;;;5133025;28;20560;-81
2023/05/05 11:33:36;;;;;;;15.30;10.23;;;19.90;99.90;;;;;;5150157;28;20044;-80
2023/05/05 11:36:08;;;;;;;16.73;10.77;;;20.00;99.90;;;;;;5132962;28;20075;-81
2023/05/05 11:38:38;;;;;;;15.02;10.77;;;20.10;99.90;;;;;;5122754;28;20042;-81
2023/05/05 11:41:26;;;;;;;16.92;10.85;;;20.20;99.90;;;;;;5140129;28;20044;-81
2023/05/05 11:44:15;;;;;;;14.45;10.15;;;20.20;99.90;;;;;;5149603;28;20040;-80
2023/05/05 11:46:51;;;;;;;16.80;11.48;;;20.30;99.90;;;;;;5133154;28;20096;-80
2023/05/05 11:49:28;;;;;;;16.83;10.88;;;20.30;99.90;;;;;;5149648;28;20123;-80
2023/05/05 11:52:07;;;;;;;20.02;11.38;;;20.30;99.90;;;;;;5146506;27;20035;-80
2023/05/05 11:54:36;;;;;;;15.05;11.07;;;20.30;99.90;;;;;;5152648;27;20057;-80
2023/05/05 11:57:06;;;;;;;15.50;10.10;;;20.30;99.90;;;;;;5152921;27;20035;-80
2023/05/05 11:59:35;;;;;;;21.58;11.43;;;20.30;99.90;;;;;;5170095;27;20046;-80
2023/05/05 12:02:05;;;;;;;16.25;11.13;;;20.30;99.90;;;;;;5132941;28;20043;-80
2023/05/05 12:04:32;;;;;;;21.92;11.32;;;20.20;99.90;;;;;;5115157;28;20039;-80
2023/05/05 12:06:59;;;;;;;15.40;10.90;;;20.10;99.90;;;;;;5115613;28;20790;-80
2023/05/05 12:09:26;;;;;;;15.07;11.00;;;20.10;99.90;;;;;;5115471;28;20036;-80
2023/05/05 12:11:54;;;;;;;15.70;11.85;;;20.10;99.90;;;;;;5149556;28;20086;-80
2023/05/05 12:14:21;;;;;;;16.13;11.05;;;20.10;99.90;;;;;;5132556;28;20047;-80
2023/05/05 12:17:00;;;;;;;15.40;10.88;;;20.20;99.90;;;;;;5115164;28;20039;-81
2023/05/05 12:19:29;;;;;;;20.45;11.60;;;20.30;99.90;;;;;;5132478;28;20047;-81
2023/05/05 12:21:56;;;;;;;17.52;11.55;;;20.20;99.90;;;;;;5120450;27;20526;-81
2023/05/05 12:24:23;;;;;;;16.40;10.65;;;20.20;99.90;;;;;;5127363;28;20035;-81
2023/05/05 12:26:50;;;;;;;15.65;10.93;;;20.30;99.90;;;;;;5131741;28;20048;-81
2023/05/05 12:29:28;;;;;;;15.48;11.43;;;20.20;99.90;;;;;;5132196;28;20077;-81
2023/05/05 12:31:56;;;;;;;19.05;11.60;;;20.20;99.90;;;;;;5149176;27;20052;-81
2023/05/05 12:34:23;;;;;;;16.95;10.93;;;20.10;99.90;;;;;;5131414;28;20047;-81
2023/05/05 12:36:50;;;;;;;17.95;12.07;;;20.10;99.90;;;;;;5131898;28;20040;-81
2023/05/05 12:39:17;;;;;;;18.48;11.52;;;20.00;99.90;;;;;;5114812;28;20039;-81
2023/05/05 12:41:43;;;;;;;15.88;11.57;;;20.00;99.90;;;;;;5115176;28;20055;-81
2023/05/05 12:44:10;;;;;;;19.63;12.52;;;19.90;99.90;;;;;;5115419;27;20035;-81
2023/05/05 12:46:44;;;;;;;15.00;11.25;;;19.90;99.90;;;;;;5118726;27;20047;-81
2023/05/05 12:49:11;;;;;;;16.17;11.47;;;19.80;99.90;;;;;;5169377;27;20039;-81
2023/05/05 12:51:50;;;;;;;16.38;11.55;;;19.60;99.90;;;;;;5151712;27;20058;-81
2023/05/05 12:54:17;;;;;;;15.90;11.35;;;19.70;99.90;;;;;;5133264;28;20055;-82